sensor_id;sensor_type;location;lat;lon;timestamp;P1;durP1;ratioP1;P2;durP2;ratioP2
21624;SDS011;10974;51.034;3.744;2023-04-25T03:39:28;7.53;;;3.50;;
21624;SDS011;10974;51.034;3.744;2023-04-25T03:41:54;12.67;;;4.23;;
21624;SDS011;10974;51.034;3.744;2023-04-25T03:44:20;10.77;;;3.50;;
21624;SDS011;10974;51.034;3.744;2023-04-25T03:46:46;9.53;;;3.53;;
21624;SDS011;10974;51.034;3.744;2023-04-25T03:49:13;7.63;;;3.33;;
21624;SDS011;10974;51.034;3.744;2023-04-25T03:51:39;10.17;;;3.90;;
21624;SDS011;10974;51.034;3.744;2023-04-25T03:54:05;7.87;;;3.10;;
21624;SDS011;10974;51.034;3.744;2023-04-25T03:56:32;6.23;;;2.90;;
21624;SDS011;10974;51.034;3.744;2023-04-25T03:58:58;9.50;;;2.70;;
21624;SDS011;10974;51.034;3.744;2023-04-25T04:01:24;6.23;;;2.47;;
21624;SDS011;10974;51.034;3.744;2023-04-25T04:03:50;8.17;;;2.53;;
21624;SDS011;10974;51.034;3.744;2023-04-25T04:06:16;7.13;;;2.70;;
21624;SDS011;10974;51.034;3.744;2023-04-25T04:08:43;4.00;;;2.50;;
21624;SDS011;10974;51.034;3.744;2023-04-25T04:11:10;12.47;;;2.87;;
21624;SDS011;10974;51.034;3.744;2023-04-25T04:13:36;5.77;;;2.60;;
21624;SDS011;10974;51.034;3.744;2023-04-25T04:16:02;9.13;;;2.83;;
21624;SDS011;10974;51.034;3.744;2023-04-25T04:18:29;10.73;;;3.03;;
21624;SDS011;10974;51.034;3.744;2023-04-25T04:20:55;9.80;;;3.60;;
21624;SDS011;10974;51.034;3.744;2023-04-25T04:23:23;9.10;;;3.33;;
21624;SDS011;10974;51.034;3.744;2023-04-25T04:25:49;8.30;;;2.67;;
21624;SDS011;10974;51.034;3.744;2023-04-25T04:28:15;7.60;;;2.83;;
21624;SDS011;10974;51.034;3.744;2023-04-25T04:30:42;9.40;;;3.50;;
21624;SDS011;10974;51.034;3.744;2023-04-25T04:33:11;7.37;;;2.80;;
21624;SDS011;10974;51.034;3.744;2023-04-25T04:35:37;9.60;;;2.93;;
21624;SDS011;10974;51.034;3.744;2023-04-25T04:38:03;8.23;;;2.67;;
21624;SDS011;10974;51.034;3.744;2023-04-25T04:40:29;9.07;;;2.87;;
21624;SDS011;10974;51.034;3.744;2023-04-25T04:42:56;10.83;;;3.13;;
21624;SDS011;10974;51.034;3.744;2023-04-25T04:45:22;7.93;;;3.50;;
21624;SDS011;10974;51.034;3.744;2023-04-25T04:47:49;14.20;;;3.10;;
21624;SDS011;10974;51.034;3.744;2023-04-25T04:50:15;10.37;;;3.10;;
21624;SDS011;10974;51.034;3.744;2023-04-25T04:52:41;8.90;;;3.30;;
21624;SDS011;10974;51.034;3.744;2023-04-25T04:55:07;14.03;;;3.40;;
21624;SDS011;10974;51.034;3.744;2023-04-25T04:57:34;9.77;;;3.60;;
21624;SDS011;10974;51.034;3.744;2023-04-25T05:00:01;10.50;;;3.10;;
21624;SDS011;10974;51.034;3.744;2023-04-25T05:02:29;8.60;;;3.30;;
21624;SDS011;10974;51.034;3.744;2023-04-25T05:04:56;9.50;;;3.40;;
21624;SDS011;10974;51.034;3.744;2023-04-25T05:07:22;10.00;;;2.93;;
21624;SDS011;10974;51.034;3.744;2023-04-25T05:09:48;9.20;;;3.50;;
21624;SDS011;10974;51.034;3.744;2023-04-25T05:12:14;10.90;;;3.03;;
21624;SDS011;10974;51.034;3.744;2023-04-25T05:14:40;5.60;;;2.90;;
21624;SDS011;10974;51.034;3.744;2023-04-25T05:17:06;6.17;;;2.90;;
21624;SDS011;10974;51.034;3.744;2023-04-25T05:19:33;10.67;;;3.30;;
21624;SDS011;10974;51.034;3.744;2023-04-25T05:22:00;9.47;;;2.63;;
21624;SDS011;10974;51.034;3.744;2023-04-25T05:24:26;9.77;;;3.33;;
21624;SDS011;10974;51.034;3.744;2023-04-25T05:26:52;8.50;;;2.70;;
21624;SDS011;10974;51.034;3.744;2023-04-25T05:29:18;5.80;;;3.40;;
21624;SDS011;10974;51.034;3.744;2023-04-25T05:31:44;3.20;;;2.90;;
21624;SDS011;10974;51.034;3.744;2023-04-25T05:34:10;9.20;;;3.07;;
21624;SDS011;10974;51.034;3.744;2023-04-25T05:36:36;7.00;;;2.77;;
21624;SDS011;10974;51.034;3.744;2023-04-25T05:39:02;6.70;;;2.70;;
21624;SDS011;10974;51.034;3.744;2023-04-25T05:41:29;11.40;;;3.00;;
21624;SDS011;10974;51.034;3.744;2023-04-25T05:43:55;6.80;;;2.87;;
21624;SDS011;10974;51.034;3.744;2023-04-25T05:46:21;7.47;;;2.97;;
21624;SDS011;10974;51.034;3.744;2023-04-25T05:48:47;9.53;;;3.80;;
21624;SDS011;10974;51.034;3.744;2023-04-25T05:51:13;11.97;;;3.73;;
21624;SDS011;10974;51.034;3.744;2023-04-25T05:53:39;9.47;;;4.10;;
21624;SDS011;10974;51.034;3.744;2023-04-25T05:56:05;9.53;;;4.40;;
21624;SDS011;10974;51.034;3.744;2023-04-25T05:58:31;11.50;;;3.97;;
21624;SDS011;10974;51.034;3.744;2023-04-25T06:00:57;10.63;;;4.33;;
21624;SDS011;10974;51.034;3.744;2023-04-25T06:03:24;10.23;;;3.97;;
21624;SDS011;10974;51.034;3.744;2023-04-25T06:05:50;12.40;;;4.00;;
21624;SDS011;10974;51.034;3.744;2023-04-25T06:08:17;15.17;;;4.53;;
21624;SDS011;10974;51.034;3.744;2023-04-25T06:10:43;11.40;;;3.50;;
21624;SDS011;10974;51.034;3.744;2023-04-25T06:13:09;12.70;;;4.13;;
21624;SDS011;10974;51.034;3.744;2023-04-25T06:15:35;15.00;;;3.87;;
21624;SDS011;10974;51.034;3.744;2023-04-25T06:18:01;7.50;;;3.20;;
21624;SDS011;10974;51.034;3.744;2023-04-25T06:20:27;9.40;;;3.00;;
21624;SDS011;10974;51.034;3.744;2023-04-25T06:22:53;8.23;;;3.07;;
21624;SDS011;10974;51.034;3.744;2023-04-25T06:25:19;7.30;;;2.53;;
21624;SDS011;10974;51.034;3.744;2023-04-25T06:27:46;12.70;;;3.10;;
21624;SDS011;10974;51.034;3.744;2023-04-25T06:30:12;8.80;;;2.80;;
21624;SDS011;10974;51.034;3.744;2023-04-25T06:32:38;7.23;;;2.90;;
21624;SDS011;10974;51.034;3.744;2023-04-25T06:35:04;9.20;;;3.10;;
21624;SDS011;10974;51.034;3.744;2023-04-25T06:37:31;7.37;;;2.73;;
21624;SDS011;10974;51.034;3.744;2023-04-25T06:39:57;6.93;;;2.40;;
21624;SDS011;10974;51.034;3.744;2023-04-25T06:42:23;5.83;;;2.30;;
21624;SDS011;10974;51.034;3.744;2023-04-25T06:44:49;5.37;;;2.23;;
21624;SDS011;10974;51.034;3.744;2023-04-25T06:47:15;4.73;;;1.90;;
21624;SDS011;10974;51.034;3.744;2023-04-25T06:49:41;7.27;;;2.60;;
21624;SDS011;10974;51.034;3.744;2023-04-25T06:52:07;8.87;;;3.20;;
21624;SDS011;10974;51.034;3.744;2023-04-25T06:54:33;12.07;;;3.00;;
21624;SDS011;10974;51.034;3.744;2023-04-25T06:56:59;4.70;;;2.40;;
21624;SDS011;10974;51.034;3.744;2023-04-25T06:59:26;4.63;;;2.60;;
21624;SDS011;10974;51.034;3.744;2023-04-25T07:01:52;6.23;;;2.40;;
21624;SDS011;10974;51.034;3.744;2023-04-25T07:04:18;8.70;;;2.33;;
21624;SDS011;10974;51.034;3.744;2023-04-25T07:06:44;10.93;;;2.73;;
21624;SDS011;10974;51.034;3.744;2023-04-25T07:09:12;8.83;;;2.13;;
21624;SDS011;10974;51.034;3.744;2023-04-25T07:11:38;10.20;;;3.90;;
21624;SDS011;10974;51.034;3.744;2023-04-25T07:14:05;6.00;;;2.30;;
21624;SDS011;10974;51.034;3.744;2023-04-25T07:16:31;7.87;;;2.57;;
21624;SDS011;10974;51.034;3.744;2023-04-25T07:18:57;5.63;;;2.43;;
21624;SDS011;10974;51.034;3.744;2023-04-25T07:21:24;3.37;;;2.00;;
21624;SDS011;10974;51.034;3.744;2023-04-25T07:23:51;5.93;;;2.33;;
21624;SDS011;10974;51.034;3.744;2023-04-25T07:26:17;9.23;;;2.53;;
21624;SDS011;10974;51.034;3.744;2023-04-25T07:28:43;9.33;;;2.43;;
21624;SDS011;10974;51.034;3.744;2023-04-25T07:31:09;6.33;;;2.40;;
21624;SDS011;10974;51.034;3.744;2023-04-25T07:33:35;5.30;;;2.57;;
21624;SDS011;10974;51.034;3.744;2023-04-25T07:36:01;5.80;;;2.00;;
21624;SDS011;10974;51.034;3.744;2023-04-25T07:38:27;10.13;;;2.60;;
21624;SDS011;10974;51.034;3.744;2023-04-25T07:40:53;7.13;;;2.67;;
21624;SDS011;10974;51.034;3.744;2023-04-25T07:43:20;5.70;;;2.10;;
21624;SDS011;10974;51.034;3.744;2023-04-25T07:45:46;4.60;;;1.90;;
21624;SDS011;10974;51.034;3.744;2023-04-25T07:48:21;3.60;;;2.30;;
21624;SDS011;10974;51.034;3.744;2023-04-25T07:50:47;3.97;;;1.73;;
21624;SDS011;10974;51.034;3.744;2023-04-25T07:53:13;4.77;;;1.87;;
21624;SDS011;10974;51.034;3.744;2023-04-25T07:55:39;4.43;;;1.63;;
21624;SDS011;10974;51.034;3.744;2023-04-25T07:58:06;4.43;;;1.80;;
21624;SDS011;10974;51.034;3.744;2023-04-25T08:00:32;8.07;;;2.60;;
21624;SDS011;10974;51.034;3.744;2023-04-25T08:02:58;5.77;;;2.10;;
21624;SDS011;10974;51.034;3.744;2023-04-25T08:05:24;8.00;;;1.77;;
21624;SDS011;10974;51.034;3.744;2023-04-25T08:07:50;4.93;;;2.00;;
21624;SDS011;10974;51.034;3.744;2023-04-25T08:10:17;6.73;;;1.60;;
21624;SDS011;10974;51.034;3.744;2023-04-25T08:12:43;4.63;;;2.00;;
21624;SDS011;10974;51.034;3.744;2023-04-25T08:15:09;8.43;;;1.53;;
21624;SDS011;10974;51.034;3.744;2023-04-25T08:17:35;6.27;;;2.13;;
21624;SDS011;10974;51.034;3.744;2023-04-25T08:20:02;5.17;;;1.77;;
21624;SDS011;10974;51.034;3.744;2023-04-25T08:22:30;2.97;;;1.50;;
21624;SDS011;10974;51.034;3.744;2023-04-25T08:24:57;4.50;;;2.17;;
21624;SDS011;10974;51.034;3.744;2023-04-25T08:27:23;5.47;;;2.30;;
21624;SDS011;10974;51.034;3.744;2023-04-25T08:29:49;7.63;;;2.03;;
21624;SDS011;10974;51.034;3.744;2023-04-25T08:32:16;5.47;;;2.20;;
21624;SDS011;10974;51.034;3.744;2023-04-25T08:34:42;7.53;;;2.03;;
21624;SDS011;10974;51.034;3.744;2023-04-25T08:37:09;7.00;;;1.97;;
21624;SDS011;10974;51.034;3.744;2023-04-25T08:39:35;2.43;;;1.80;;
21624;SDS011;10974;51.034;3.744;2023-04-25T08:42:06;5.23;;;1.93;;
21624;SDS011;10974;51.034;3.744;2023-04-25T08:44:35;3.53;;;1.50;;
21624;SDS011;10974;51.034;3.744;2023-04-25T08:47:05;2.20;;;1.20;;
21624;SDS011;10974;51.034;3.744;2023-04-25T08:49:32;6.27;;;2.20;;
21624;SDS011;10974;51.034;3.744;2023-04-25T08:52:02;6.40;;;2.63;;
21624;SDS011;10974;51.034;3.744;2023-04-25T08:54:30;28.53;;;4.20;;
21624;SDS011;10974;51.034;3.744;2023-04-25T08:56:57;8.73;;;3.40;;
21624;SDS011;10974;51.034;3.744;2023-04-25T08:59:23;5.70;;;2.10;;
21624;SDS011;10974;51.034;3.744;2023-04-25T09:01:50;4.17;;;1.40;;
21624;SDS011;10974;51.034;3.744;2023-04-25T09:04:17;3.43;;;1.50;;
21624;SDS011;10974;51.034;3.744;2023-04-25T09:06:44;4.00;;;1.93;;
21624;SDS011;10974;51.034;3.744;2023-04-25T09:09:10;7.10;;;2.50;;
21624;SDS011;10974;51.034;3.744;2023-04-25T09:11:37;5.53;;;1.87;;
21624;SDS011;10974;51.034;3.744;2023-04-25T09:14:10;7.00;;;1.70;;
21624;SDS011;10974;51.034;3.744;2023-04-25T09:16:43;6.20;;;1.73;;
21624;SDS011;10974;51.034;3.744;2023-04-25T09:19:23;5.60;;;1.80;;
21624;SDS011;10974;51.034;3.744;2023-04-25T09:21:50;5.70;;;1.90;;
21624;SDS011;10974;51.034;3.744;2023-04-25T09:24:19;8.43;;;2.17;;
21624;SDS011;10974;51.034;3.744;2023-04-25T09:26:56;3.10;;;1.70;;
21624;SDS011;10974;51.034;3.744;2023-04-25T09:29:28;5.80;;;2.07;;
21624;SDS011;10974;51.034;3.744;2023-04-25T09:32:10;6.10;;;2.30;;
21624;SDS011;10974;51.034;3.744;2023-04-25T09:34:40;4.20;;;2.07;;
21624;SDS011;10974;51.034;3.744;2023-04-25T09:37:08;10.67;;;3.70;;
21624;SDS011;10974;51.034;3.744;2023-04-25T09:39:34;6.80;;;2.30;;
21624;SDS011;10974;51.034;3.744;2023-04-25T09:42:00;5.97;;;1.70;;
21624;SDS011;10974;51.034;3.744;2023-04-25T09:44:28;2.33;;;1.60;;
21624;SDS011;10974;51.034;3.744;2023-04-25T09:46:54;10.60;;;1.97;;
21624;SDS011;10974;51.034;3.744;2023-04-25T09:49:20;4.93;;;1.70;;
21624;SDS011;10974;51.034;3.744;2023-04-25T09:51:56;6.20;;;2.30;;
21624;SDS011;10974;51.034;3.744;2023-04-25T09:54:25;4.53;;;1.80;;
21624;SDS011;10974;51.034;3.744;2023-04-25T09:56:52;3.27;;;1.83;;
21624;SDS011;10974;51.034;3.744;2023-04-25T09:59:21;4.50;;;1.60;;
21624;SDS011;10974;51.034;3.744;2023-04-25T10:01:48;2.70;;;1.47;;
21624;SDS011;10974;51.034;3.744;2023-04-25T10:04:22;2.67;;;1.60;;
21624;SDS011;10974;51.034;3.744;2023-04-25T10:06:51;5.40;;;1.90;;
21624;SDS011;10974;51.034;3.744;2023-04-25T10:09:21;3.57;;;1.70;;
21624;SDS011;10974;51.034;3.744;2023-04-25T10:11:50;4.30;;;1.27;;
21624;SDS011;10974;51.034;3.744;2023-04-25T10:14:17;2.57;;;1.50;;
21624;SDS011;10974;51.034;3.744;2023-04-25T10:16:44;2.77;;;1.33;;
21624;SDS011;10974;51.034;3.744;2023-04-25T10:19:10;6.83;;;1.63;;
21624;SDS011;10974;51.034;3.744;2023-04-25T10:21:40;3.80;;;1.50;;
21624;SDS011;10974;51.034;3.744;2023-04-25T10:24:10;2.83;;;1.50;;
21624;SDS011;10974;51.034;3.744;2023-04-25T10:26:37;3.30;;;1.70;;
21624;SDS011;10974;51.034;3.744;2023-04-25T10:29:03;5.00;;;2.13;;
21624;SDS011;10974;51.034;3.744;2023-04-25T10:31:29;5.20;;;1.63;;
21624;SDS011;10974;51.034;3.744;2023-04-25T10:33:56;1.80;;;1.60;;
21624;SDS011;10974;51.034;3.744;2023-04-25T10:36:22;6.97;;;1.70;;
21624;SDS011;10974;51.034;3.744;2023-04-25T10:38:49;1.53;;;1.40;;
21624;SDS011;10974;51.034;3.744;2023-04-25T10:41:17;2.87;;;1.53;;
21624;SDS011;10974;51.034;3.744;2023-04-25T10:43:44;6.50;;;2.13;;
21624;SDS011;10974;51.034;3.744;2023-04-25T10:48:56;4.63;;;2.00;;
21624;SDS011;10974;51.034;3.744;2023-04-25T11:01:44;6.40;;;2.30;;
21624;SDS011;10974;51.034;3.744;2023-04-25T11:04:23;4.30;;;1.90;;
21624;SDS011;10974;51.034;3.744;2023-04-25T11:09:28;2.80;;;1.57;;
21624;SDS011;10974;51.034;3.744;2023-04-25T11:11:55;6.47;;;1.80;;
21624;SDS011;10974;51.034;3.744;2023-04-25T11:14:21;5.47;;;2.27;;
21624;SDS011;10974;51.034;3.744;2023-04-25T11:16:52;6.10;;;1.80;;
21624;SDS011;10974;51.034;3.744;2023-04-25T11:19:19;3.70;;;1.53;;
21624;SDS011;10974;51.034;3.744;2023-04-25T11:21:45;4.30;;;1.60;;
21624;SDS011;10974;51.034;3.744;2023-04-25T11:24:12;5.23;;;1.40;;
21624;SDS011;10974;51.034;3.744;2023-04-25T11:26:38;4.30;;;1.77;;
21624;SDS011;10974;51.034;3.744;2023-04-25T11:29:04;4.00;;;1.60;;
21624;SDS011;10974;51.034;3.744;2023-04-25T11:31:30;3.43;;;1.40;;
21624;SDS011;10974;51.034;3.744;2023-04-25T11:33:57;4.77;;;1.33;;
21624;SDS011;10974;51.034;3.744;2023-04-25T11:36:23;6.37;;;2.10;;
21624;SDS011;10974;51.034;3.744;2023-04-25T11:38:51;4.57;;;1.40;;
21624;SDS011;10974;51.034;3.744;2023-04-25T11:41:18;4.60;;;2.47;;
21624;SDS011;10974;51.034;3.744;2023-04-25T11:43:44;2.70;;;1.60;;
21624;SDS011;10974;51.034;3.744;2023-04-25T11:46:10;2.53;;;1.50;;
21624;SDS011;10974;51.034;3.744;2023-04-25T11:48:39;11.00;;;5.20;;
21624;SDS011;10974;51.034;3.744;2023-04-25T11:51:05;3.80;;;1.83;;
21624;SDS011;10974;51.034;3.744;2023-04-25T11:53:31;4.93;;;2.10;;
21624;SDS011;10974;51.034;3.744;2023-04-25T11:55:57;4.10;;;2.00;;
21624;SDS011;10974;51.034;3.744;2023-04-25T11:58:24;4.03;;;1.97;;
21624;SDS011;10974;51.034;3.744;2023-04-25T12:00:51;4.60;;;1.60;;
21624;SDS011;10974;51.034;3.744;2023-04-25T12:03:17;3.80;;;1.77;;
21624;SDS011;10974;51.034;3.744;2023-04-25T12:05:44;6.90;;;1.63;;
21624;SDS011;10974;51.034;3.744;2023-04-25T12:08:10;4.83;;;1.47;;
21624;SDS011;10974;51.034;3.744;2023-04-25T12:10:40;5.67;;;1.43;;
21624;SDS011;10974;51.034;3.744;2023-04-25T12:13:19;3.57;;;1.53;;
21624;SDS011;10974;51.034;3.744;2023-04-25T12:15:46;4.40;;;1.43;;
21624;SDS011;10974;51.034;3.744;2023-04-25T12:18:12;4.03;;;1.70;;
21624;SDS011;10974;51.034;3.744;2023-04-25T12:20:38;5.00;;;1.47;;
21624;SDS011;10974;51.034;3.744;2023-04-25T12:23:07;4.93;;;1.70;;
21624;SDS011;10974;51.034;3.744;2023-04-25T12:25:43;4.63;;;1.87;;
21624;SDS011;10974;51.034;3.744;2023-04-25T12:28:14;3.83;;;2.50;;
21624;SDS011;10974;51.034;3.744;2023-04-25T12:30:56;3.93;;;1.60;;
21624;SDS011;10974;51.034;3.744;2023-04-25T12:33:23;4.27;;;1.50;;
21624;SDS011;10974;51.034;3.744;2023-04-25T12:35:49;5.67;;;1.67;;
21624;SDS011;10974;51.034;3.744;2023-04-25T12:40:47;3.57;;;1.83;;
21624;SDS011;10974;51.034;3.744;2023-04-25T12:43:13;5.93;;;2.10;;
21624;SDS011;10974;51.034;3.744;2023-04-25T12:45:39;6.70;;;2.33;;
21624;SDS011;10974;51.034;3.744;2023-04-25T12:48:05;4.07;;;1.80;;
21624;SDS011;10974;51.034;3.744;2023-04-25T12:50:31;5.90;;;1.83;;
21624;SDS011;10974;51.034;3.744;2023-04-25T12:52:57;4.07;;;1.90;;
21624;SDS011;10974;51.034;3.744;2023-04-25T12:55:23;5.90;;;1.60;;
21624;SDS011;10974;51.034;3.744;2023-04-25T12:57:49;7.13;;;2.40;;
21624;SDS011;10974;51.034;3.744;2023-04-25T13:00:16;5.50;;;1.50;;
21624;SDS011;10974;51.034;3.744;2023-04-25T13:02:44;6.20;;;1.57;;
21624;SDS011;10974;51.034;3.744;2023-04-25T13:05:11;4.67;;;1.60;;
21624;SDS011;10974;51.034;3.744;2023-04-25T13:07:38;5.73;;;1.87;;
21624;SDS011;10974;51.034;3.744;2023-04-25T13:10:04;8.03;;;1.90;;
21624;SDS011;10974;51.034;3.744;2023-04-25T13:12:31;5.20;;;1.80;;
21624;SDS011;10974;51.034;3.744;2023-04-25T13:14:57;6.63;;;1.70;;
21624;SDS011;10974;51.034;3.744;2023-04-25T13:17:23;6.73;;;1.77;;
21624;SDS011;10974;51.034;3.744;2023-04-25T13:19:49;10.00;;;2.17;;
21624;SDS011;10974;51.034;3.744;2023-04-25T13:22:16;5.80;;;1.80;;
21624;SDS011;10974;51.034;3.744;2023-04-25T13:24:44;4.63;;;1.60;;
21624;SDS011;10974;51.034;3.744;2023-04-25T13:27:10;10.07;;;2.10;;
21624;SDS011;10974;51.034;3.744;2023-04-25T13:29:36;3.70;;;2.00;;
21624;SDS011;10974;51.034;3.744;2023-04-25T13:32:03;6.90;;;2.17;;
21624;SDS011;10974;51.034;3.744;2023-04-25T13:34:30;4.57;;;1.50;;
21624;SDS011;10974;51.034;3.744;2023-04-25T13:36:56;9.93;;;2.10;;
21624;SDS011;10974;51.034;3.744;2023-04-25T13:39:22;4.37;;;1.70;;
21624;SDS011;10974;51.034;3.744;2023-04-25T13:41:48;5.47;;;2.00;;
21624;SDS011;10974;51.034;3.744;2023-04-25T13:44:14;6.23;;;2.10;;
21624;SDS011;10974;51.034;3.744;2023-04-25T13:46:40;7.57;;;2.00;;
21624;SDS011;10974;51.034;3.744;2023-04-25T13:49:06;6.60;;;1.90;;
21624;SDS011;10974;51.034;3.744;2023-04-25T13:51:32;7.60;;;2.00;;
21624;SDS011;10974;51.034;3.744;2023-04-25T13:53:58;3.23;;;1.73;;
21624;SDS011;10974;51.034;3.744;2023-04-25T13:56:24;3.63;;;1.60;;
21624;SDS011;10974;51.034;3.744;2023-04-25T13:58:51;7.07;;;1.63;;
21624;SDS011;10974;51.034;3.744;2023-04-25T14:01:17;6.27;;;1.80;;
21624;SDS011;10974;51.034;3.744;2023-04-25T14:03:44;3.40;;;1.47;;
21624;SDS011;10974;51.034;3.744;2023-04-25T14:06:10;3.10;;;1.40;;
21624;SDS011;10974;51.034;3.744;2023-04-25T14:08:37;2.43;;;1.40;;
21624;SDS011;10974;51.034;3.744;2023-04-25T14:11:03;3.23;;;1.90;;
21624;SDS011;10974;51.034;3.744;2023-04-25T14:13:29;2.53;;;1.50;;
21624;SDS011;10974;51.034;3.744;2023-04-25T14:15:56;5.80;;;1.80;;
21624;SDS011;10974;51.034;3.744;2023-04-25T14:18:22;4.10;;;1.63;;
21624;SDS011;10974;51.034;3.744;2023-04-25T14:20:49;3.97;;;1.60;;
21624;SDS011;10974;51.034;3.744;2023-04-25T14:23:15;5.00;;;1.67;;
21624;SDS011;10974;51.034;3.744;2023-04-25T14:25:42;5.53;;;1.63;;
21624;SDS011;10974;51.034;3.744;2023-04-25T14:28:09;5.17;;;1.40;;
21624;SDS011;10974;51.034;3.744;2023-04-25T14:30:35;6.90;;;1.60;;
21624;SDS011;10974;51.034;3.744;2023-04-25T14:33:01;7.60;;;1.70;;
21624;SDS011;10974;51.034;3.744;2023-04-25T14:35:27;3.63;;;1.30;;
21624;SDS011;10974;51.034;3.744;2023-04-25T14:37:53;6.10;;;1.70;;
21624;SDS011;10974;51.034;3.744;2023-04-25T14:40:20;2.87;;;1.40;;
21624;SDS011;10974;51.034;3.744;2023-04-25T14:42:48;8.57;;;1.90;;
21624;SDS011;10974;51.034;3.744;2023-04-25T14:45:16;5.10;;;1.90;;
21624;SDS011;10974;51.034;3.744;2023-04-25T14:47:42;4.00;;;1.50;;
21624;SDS011;10974;51.034;3.744;2023-04-25T14:50:09;3.90;;;1.60;;
21624;SDS011;10974;51.034;3.744;2023-04-25T14:52:35;3.90;;;1.60;;
21624;SDS011;10974;51.034;3.744;2023-04-25T14:55:01;3.03;;;1.50;;
21624;SDS011;10974;51.034;3.744;2023-04-25T14:57:33;3.73;;;1.33;;
21624;SDS011;10974;51.034;3.744;2023-04-25T14:59:59;4.80;;;1.97;;
21624;SDS011;10974;51.034;3.744;2023-04-25T15:02:25;6.97;;;1.67;;
21624;SDS011;10974;51.034;3.744;2023-04-25T15:04:52;7.80;;;2.13;;
21624;SDS011;10974;51.034;3.744;2023-04-25T15:07:18;5.10;;;1.80;;
21624;SDS011;10974;51.034;3.744;2023-04-25T15:09:44;3.57;;;1.97;;
21624;SDS011;10974;51.034;3.744;2023-04-25T15:12:10;5.90;;;2.30;;
21624;SDS011;10974;51.034;3.744;2023-04-25T15:14:36;3.50;;;1.47;;
21624;SDS011;10974;51.034;3.744;2023-04-25T15:17:03;2.90;;;1.27;;
21624;SDS011;10974;51.034;3.744;2023-04-25T15:19:29;3.60;;;1.67;;
21624;SDS011;10974;51.034;3.744;2023-04-25T15:21:55;2.07;;;1.40;;
21624;SDS011;10974;51.034;3.744;2023-04-25T15:24:21;3.90;;;1.87;;
21624;SDS011;10974;51.034;3.744;2023-04-25T15:26:47;3.93;;;1.47;;
21624;SDS011;10974;51.034;3.744;2023-04-25T15:29:13;5.17;;;1.50;;
21624;SDS011;10974;51.034;3.744;2023-04-25T15:31:40;3.23;;;1.70;;
21624;SDS011;10974;51.034;3.744;2023-04-25T15:34:06;5.90;;;2.47;;
21624;SDS011;10974;51.034;3.744;2023-04-25T15:36:32;5.70;;;2.10;;
21624;SDS011;10974;51.034;3.744;2023-04-25T15:38:58;6.00;;;2.00;;
21624;SDS011;10974;51.034;3.744;2023-04-25T15:41:24;4.33;;;1.70;;
21624;SDS011;10974;51.034;3.744;2023-04-25T15:43:50;80.97;;;4.60;;
21624;SDS011;10974;51.034;3.744;2023-04-25T15:46:18;5.47;;;2.17;;
21624;SDS011;10974;51.034;3.744;2023-04-25T15:48:46;3.87;;;1.50;;
21624;SDS011;10974;51.034;3.744;2023-04-25T15:51:12;2.70;;;1.40;;
21624;SDS011;10974;51.034;3.744;2023-04-25T15:53:38;2.70;;;1.37;;
21624;SDS011;10974;51.034;3.744;2023-04-25T15:56:04;6.50;;;1.90;;
21624;SDS011;10974;51.034;3.744;2023-04-25T15:58:31;5.13;;;1.70;;
21624;SDS011;10974;51.034;3.744;2023-04-25T16:00:57;7.00;;;1.90;;
21624;SDS011;10974;51.034;3.744;2023-04-25T16:03:23;6.63;;;2.17;;
21624;SDS011;10974;51.034;3.744;2023-04-25T16:05:49;5.73;;;2.10;;
21624;SDS011;10974;51.034;3.744;2023-04-25T16:08:16;8.50;;;2.57;;
21624;SDS011;10974;51.034;3.744;2023-04-25T16:10:43;6.07;;;2.43;;
21624;SDS011;10974;51.034;3.744;2023-04-25T16:13:09;4.67;;;1.87;;
21624;SDS011;10974;51.034;3.744;2023-04-25T16:15:35;6.77;;;1.87;;
21624;SDS011;10974;51.034;3.744;2023-04-25T16:18:02;5.70;;;2.10;;
21624;SDS011;10974;51.034;3.744;2023-04-25T16:20:28;4.73;;;1.77;;
21624;SDS011;10974;51.034;3.744;2023-04-25T16:22:54;2.57;;;1.70;;
21624;SDS011;10974;51.034;3.744;2023-04-25T16:25:20;11.83;;;4.87;;
21624;SDS011;10974;51.034;3.744;2023-04-25T16:27:46;7.33;;;3.57;;
21624;SDS011;10974;51.034;3.744;2023-04-25T16:30:12;11.27;;;4.70;;
21624;SDS011;10974;51.034;3.744;2023-04-25T16:32:39;7.70;;;3.10;;
21624;SDS011;10974;51.034;3.744;2023-04-25T16:35:05;4.53;;;1.97;;
21624;SDS011;10974;51.034;3.744;2023-04-25T16:37:32;4.20;;;2.50;;
21624;SDS011;10974;51.034;3.744;2023-04-25T16:39:58;5.07;;;1.83;;
21624;SDS011;10974;51.034;3.744;2023-04-25T16:42:24;4.17;;;1.70;;
21624;SDS011;10974;51.034;3.744;2023-04-25T16:44:50;7.53;;;1.90;;
21624;SDS011;10974;51.034;3.744;2023-04-25T16:47:17;2.70;;;1.57;;
21624;SDS011;10974;51.034;3.744;2023-04-25T16:49:43;4.57;;;1.57;;
21624;SDS011;10974;51.034;3.744;2023-04-25T16:52:10;2.67;;;1.70;;
21624;SDS011;10974;51.034;3.744;2023-04-25T16:54:36;3.40;;;1.60;;
21624;SDS011;10974;51.034;3.744;2023-04-25T16:57:03;3.10;;;1.70;;
21624;SDS011;10974;51.034;3.744;2023-04-25T16:59:29;8.13;;;1.27;;
21624;SDS011;10974;51.034;3.744;2023-04-25T17:01:57;4.00;;;1.37;;
21624;SDS011;10974;51.034;3.744;2023-04-25T17:04:24;4.70;;;1.60;;
21624;SDS011;10974;51.034;3.744;2023-04-25T17:06:50;3.20;;;1.70;;
21624;SDS011;10974;51.034;3.744;2023-04-25T17:09:16;6.23;;;1.90;;
21624;SDS011;10974;51.034;3.744;2023-04-25T17:11:42;5.20;;;1.83;;
21624;SDS011;10974;51.034;3.744;2023-04-25T17:14:09;7.47;;;1.90;;
21624;SDS011;10974;51.034;3.744;2023-04-25T17:16:35;3.37;;;1.77;;
21624;SDS011;10974;51.034;3.744;2023-04-25T17:19:02;4.60;;;2.37;;
21624;SDS011;10974;51.034;3.744;2023-04-25T17:21:28;4.87;;;2.10;;
21624;SDS011;10974;51.034;3.744;2023-04-25T17:23:55;3.50;;;1.80;;
21624;SDS011;10974;51.034;3.744;2023-04-25T17:26:23;3.57;;;1.60;;
21624;SDS011;10974;51.034;3.744;2023-04-25T17:28:49;5.10;;;1.63;;
21624;SDS011;10974;51.034;3.744;2023-04-25T17:31:16;3.93;;;2.00;;
21624;SDS011;10974;51.034;3.744;2023-04-25T17:33:42;4.20;;;1.80;;
21624;SDS011;10974;51.034;3.744;2023-04-25T17:36:08;5.37;;;2.20;;
21624;SDS011;10974;51.034;3.744;2023-04-25T17:38:34;5.80;;;1.80;;
21624;SDS011;10974;51.034;3.744;2023-04-25T17:41:03;6.77;;;1.70;;
21624;SDS011;10974;51.034;3.744;2023-04-25T17:43:29;2.00;;;1.60;;
21624;SDS011;10974;51.034;3.744;2023-04-25T17:45:57;9.30;;;2.00;;
21624;SDS011;10974;51.034;3.744;2023-04-25T17:48:23;7.03;;;1.70;;
21624;SDS011;10974;51.034;3.744;2023-04-25T17:50:49;2.73;;;1.50;;
21624;SDS011;10974;51.034;3.744;2023-04-25T17:53:15;2.13;;;1.20;;
21624;SDS011;10974;51.034;3.744;2023-04-25T17:55:41;2.93;;;1.70;;
21624;SDS011;10974;51.034;3.744;2023-04-25T17:58:08;3.23;;;1.93;;
21624;SDS011;10974;51.034;3.744;2023-04-25T18:00:35;6.70;;;1.87;;
21624;SDS011;10974;51.034;3.744;2023-04-25T18:03:02;3.77;;;1.70;;
21624;SDS011;10974;51.034;3.744;2023-04-25T18:05:28;3.00;;;1.50;;
21624;SDS011;10974;51.034;3.744;2023-04-25T18:07:54;8.70;;;2.07;;
21624;SDS011;10974;51.034;3.744;2023-04-25T18:10:20;4.27;;;2.10;;
21624;SDS011;10974;51.034;3.744;2023-04-25T18:12:46;3.93;;;2.17;;
21624;SDS011;10974;51.034;3.744;2023-04-25T18:15:12;4.20;;;1.90;;
21624;SDS011;10974;51.034;3.744;2023-04-25T18:17:38;6.93;;;2.43;;
21624;SDS011;10974;51.034;3.744;2023-04-25T18:20:14;6.10;;;3.20;;
21624;SDS011;10974;51.034;3.744;2023-04-25T18:22:40;9.30;;;3.67;;
21624;SDS011;10974;51.034;3.744;2023-04-25T18:25:07;8.23;;;3.27;;
21624;SDS011;10974;51.034;3.744;2023-04-25T18:27:37;9.23;;;3.27;;
21624;SDS011;10974;51.034;3.744;2023-04-25T18:30:04;4.27;;;1.93;;
21624;SDS011;10974;51.034;3.744;2023-04-25T18:32:30;6.30;;;2.13;;
21624;SDS011;10974;51.034;3.744;2023-04-25T18:34:57;5.93;;;1.63;;
21624;SDS011;10974;51.034;3.744;2023-04-25T18:37:23;6.83;;;2.03;;
21624;SDS011;10974;51.034;3.744;2023-04-25T18:39:49;5.00;;;1.80;;